Time;durP1;ratioP1;P1;durP2;ratioP2;P2;SDS_P1;SDS_P2;PMS_P1;PMS_P2;Temp;Humidity;BMP_temperature;BMP_pressure;BME280_temperature;BME280_humidity;BME280_pressure;Samples;Min_cycle;Max_cycle;Signal;HPM_P1;HPM_P2
2021/10/13 00:02:03;;;;;;;27.02;8.15;;;10.70;99.90;;;;;;6236521;23;20095;-89
2021/10/13 00:04:29;;;;;;;13.32;6.57;;;10.70;99.90;;;;;;6237577;23;20019;-90
2021/10/13 00:06:55;;;;;;;25.75;9.40;;;10.60;99.90;;;;;;6234088;23;20094;-89
2021/10/13 00:09:20;;;;;;;16.08;8.10;;;10.60;99.90;;;;;;6229464;23;20016;-90
2021/10/13 00:11:46;;;;;;;19.77;8.77;;;10.60;99.90;;;;;;6224978;23;20004;-89
2021/10/13 00:14:12;;;;;;;23.73;8.57;;;10.60;99.90;;;;;;6223480;23;20012;-90
2021/10/13 00:16:38;;;;;;;22.30;8.98;;;10.60;99.90;;;;;;6223558;23;20019;-90
2021/10/13 00:19:04;;;;;;;20.10;9.00;;;10.60;99.90;;;;;;6222610;23;20007;-90
2021/10/13 00:21:30;;;;;;;24.63;7.38;;;10.60;99.90;;;;;;6222345;23;20058;-89
2021/10/13 00:23:56;;;;;;;16.17;7.47;;;10.60;99.90;;;;;;6221438;23;19996;-90
2021/10/13 00:26:21;;;;;;;20.27;8.20;;;10.60;99.90;;;;;;6220978;23;20004;-90
2021/10/13 00:28:47;;;;;;;20.38;8.45;;;10.60;99.90;;;;;;6220021;23;20053;-89
2021/10/13 00:31:13;;;;;;;24.80;8.32;;;10.60;99.90;;;;;;6220073;23;20008;-90
2021/10/13 00:33:38;;;;;;;18.48;7.97;;;10.60;99.90;;;;;;6220987;23;20436;-88
2021/10/13 00:36:04;;;;;;;23.88;9.65;;;10.60;99.90;;;;;;6220309;23;20031;-89
2021/10/13 00:38:29;;;;;;;22.63;10.65;;;10.60;99.90;;;;;;6220192;23;19996;-90
2021/10/13 00:40:55;;;;;;;26.60;9.40;;;10.60;99.90;;;;;;6245194;23;20004;-90
2021/10/13 00:43:21;;;;;;;24.23;10.05;;;10.70;99.90;;;;;;6219953;23;20034;-90
2021/10/13 00:45:49;;;;;;;25.98;9.80;;;10.70;99.90;;;;;;6245077;22;20012;-90
2021/10/13 00:48:14;;;;;;;27.92;12.82;;;10.70;99.90;;;;;;6219946;23;20136;-90
2021/10/13 00:50:40;;;;;;;22.05;11.52;;;10.70;99.90;;;;;;6245704;22;20012;-89
2021/10/13 00:53:06;;;;;;;29.45;12.48;;;10.70;99.90;;;;;;6244749;23;20055;-90
2021/10/13 00:55:32;;;;;;;18.75;8.30;;;10.70;99.90;;;;;;6244713;23;20039;-90
2021/10/13 00:57:59;;;;;;;19.48;7.57;;;10.70;99.90;;;;;;6219717;23;20007;-90
2021/10/13 01:00:25;;;;;;;16.75;7.78;;;10.70;99.90;;;;;;6221859;23;20465;-89
2021/10/13 01:03:12;;;;;;;21.80;8.55;;;10.70;99.90;;;;;;6222083;23;20007;-89
2021/10/13 01:05:46;;;;;;;21.70;10.23;;;10.70;99.90;;;;;;6222175;23;20019;-90
2021/10/13 01:08:24;;;;;;;22.55;9.50;;;10.60;99.90;;;;;;6222123;23;20012;-89
2021/10/13 01:11:00;;;;;;;26.08;11.93;;;10.70;99.90;;;;;;6221820;23;20005;-90
2021/10/13 01:13:54;;;;;;;26.58;11.35;;;10.70;99.90;;;;;;6222090;23;20047;-89
2021/10/13 01:16:19;;;;;;;25.42;12.27;;;10.70;99.90;;;;;;6222174;23;20106;-90
2021/10/13 01:18:53;;;;;;;32.97;14.57;;;10.70;99.90;;;;;;6223137;23;20447;-89
2021/10/13 01:21:46;;;;;;;34.70;15.05;;;10.70;99.90;;;;;;6219204;23;20008;-89
2021/10/13 01:24:34;;;;;;;33.30;14.70;;;10.70;99.90;;;;;;6220947;23;20504;-90
2021/10/13 01:27:27;;;;;;;31.15;15.02;;;10.70;99.90;;;;;;6220763;23;20004;-89
2021/10/13 01:29:54;;;;;;;31.42;14.25;;;10.80;99.90;;;;;;6220796;23;20004;-89
2021/10/13 01:32:25;;;;;;;20.35;9.43;;;10.70;99.90;;;;;;6220980;23;20007;-90
2021/10/13 01:34:56;;;;;;;25.50;10.13;;;10.70;99.90;;;;;;6220613;23;20005;-90
2021/10/13 01:37:27;;;;;;;20.95;10.40;;;10.80;99.90;;;;;;6220820;23;20010;-90
2021/10/13 01:39:55;;;;;;;20.05;10.10;;;10.70;99.90;;;;;;6220605;23;20050;-89
2021/10/13 01:42:22;;;;;;;28.75;10.02;;;10.70;99.90;;;;;;6220428;23;20008;-89
2021/10/13 01:44:51;;;;;;;31.13;12.88;;;10.70;99.90;;;;;;6220477;23;20019;-89
2021/10/13 01:47:20;;;;;;;29.15;10.35;;;10.70;99.90;;;;;;6220741;23;20000;-89
2021/10/13 01:49:48;;;;;;;19.67;9.95;;;10.70;99.90;;;;;;6222324;23;20077;-90
2021/10/13 01:52:14;;;;;;;20.83;9.75;;;10.70;99.90;;;;;;6225285;23;20339;-89
2021/10/13 01:54:42;;;;;;;23.38;11.10;;;10.70;99.90;;;;;;6230120;23;20004;-90
2021/10/13 01:57:08;;;;;;;26.48;11.55;;;10.70;99.90;;;;;;6220682;23;20018;-91
2021/10/13 01:59:38;;;;;;;29.17;13.55;;;10.70;99.90;;;;;;6220611;23;20054;-90
2021/10/13 02:02:04;;;;;;;31.50;15.50;;;10.70;99.90;;;;;;6249937;23;20004;-91
2021/10/13 02:04:36;;;;;;;28.67;12.88;;;10.70;99.90;;;;;;6220670;23;20008;-89
2021/10/13 02:07:03;;;;;;;32.85;15.77;;;10.70;99.90;;;;;;6219981;23;20684;-90
2021/10/13 02:09:30;;;;;;;38.80;16.55;;;10.70;99.90;;;;;;6219615;23;20095;-90
2021/10/13 02:11:58;;;;;;;33.35;15.38;;;10.70;99.90;;;;;;6219793;23;20443;-89
2021/10/13 02:14:25;;;;;;;34.38;16.48;;;10.70;99.90;;;;;;6220338;23;20499;-90
2021/10/13 02:16:54;;;;;;;38.42;16.45;;;10.80;99.90;;;;;;6219897;23;20043;-89
2021/10/13 02:19:21;;;;;;;45.88;17.67;;;10.80;99.90;;;;;;6219746;23;20001;-90
2021/10/13 02:21:53;;;;;;;36.67;16.83;;;10.80;99.90;;;;;;6219674;23;20436;-90
2021/10/13 02:24:25;;;;;;;44.40;17.17;;;10.80;99.90;;;;;;6219995;23;20019;-89
2021/10/13 02:26:58;;;;;;;35.75;14.77;;;10.80;99.90;;;;;;6219964;23;20004;-90
2021/10/13 02:29:24;;;;;;;30.77;12.48;;;10.80;99.90;;;;;;6219974;23;20008;-89
2021/10/13 02:31:51;;;;;;;28.17;11.93;;;10.80;99.90;;;;;;6245195;22;20030;-89
2021/10/13 02:34:17;;;;;;;30.75;12.15;;;10.80;99.90;;;;;;6219674;23;19996;-89
2021/10/13 02:36:43;;;;;;;27.95;11.82;;;10.80;99.90;;;;;;6244821;22;20077;-89
2021/10/13 02:39:08;;;;;;;28.08;11.15;;;10.70;99.90;;;;;;6244685;22;20004;-89
2021/10/13 02:41:36;;;;;;;33.30;11.10;;;10.70;99.90;;;;;;6244708;22;20012;-89
2021/10/13 02:44:07;;;;;;;25.58;12.18;;;10.70;99.90;;;;;;6219421;23;20004;-90
2021/10/13 02:46:45;;;;;;;30.85;13.30;;;10.70;99.90;;;;;;6219069;23;20000;-90
2021/10/13 02:49:21;;;;;;;38.97;12.35;;;10.70;99.90;;;;;;6219402;23;20004;-90
2021/10/13 02:52:05;;;;;;;24.13;11.07;;;10.70;99.90;;;;;;6219531;23;20023;-89
2021/10/13 02:54:40;;;;;;;21.50;10.18;;;10.70;99.90;;;;;;6219126;23;20008;-90
2021/10/13 02:57:06;;;;;;;29.70;11.38;;;10.70;99.90;;;;;;6219257;23;20004;-89
2021/10/13 02:59:41;;;;;;;23.33;10.95;;;10.60;99.90;;;;;;6219070;23;20008;-90
2021/10/13 03:02:15;;;;;;;23.90;10.73;;;10.60;99.90;;;;;;6219318;23;20008;-90
2021/10/13 03:04:50;;;;;;;28.00;11.45;;;10.60;99.90;;;;;;6219433;23;20004;-89
2021/10/13 03:07:20;;;;;;;23.58;10.85;;;10.60;99.90;;;;;;6219145;23;20058;-89
2021/10/13 03:09:53;;;;;;;27.25;12.73;;;10.60;99.90;;;;;;6219202;23;20447;-88
2021/10/13 03:12:20;;;;;;;37.05;13.73;;;10.70;99.90;;;;;;6218955;23;20012;-89
2021/10/13 03:14:49;;;;;;;30.20;13.23;;;10.70;99.90;;;;;;6218666;23;20059;-89
2021/10/13 03:17:18;;;;;;;29.60;13.10;;;10.70;99.90;;;;;;6219292;23;20035;-90
2021/10/13 03:19:45;;;;;;;33.33;14.45;;;10.70;99.90;;;;;;6218965;23;20004;-89
2021/10/13 03:22:13;;;;;;;33.03;13.88;;;10.70;99.90;;;;;;6218529;23;20011;-89
2021/10/13 03:24:40;;;;;;;25.02;11.30;;;10.70;99.90;;;;;;6218926;23;20131;-89
2021/10/13 03:27:06;;;;;;;27.98;12.38;;;10.70;99.90;;;;;;6218392;23;20004;-89
2021/10/13 03:29:31;;;;;;;35.25;13.65;;;10.70;99.90;;;;;;6218372;23;20498;-89
2021/10/13 03:31:58;;;;;;;27.52;12.02;;;10.70;99.90;;;;;;6243807;22;20004;-89
2021/10/13 03:34:24;;;;;;;30.40;12.98;;;10.70;99.90;;;;;;6244979;22;20012;-89
2021/10/13 03:36:50;;;;;;;31.40;11.75;;;10.70;99.90;;;;;;6247367;23;20027;-89
2021/10/13 03:39:17;;;;;;;21.52;9.52;;;10.60;99.90;;;;;;6225266;23;20008;-89
2021/10/13 03:41:44;;;;;;;30.20;10.75;;;10.60;99.90;;;;;;6226801;23;20031;-89
2021/10/13 03:44:09;;;;;;;35.92;11.82;;;10.60;99.90;;;;;;6218780;23;20495;-89
2021/10/13 03:46:37;;;;;;;35.47;11.77;;;10.60;99.90;;;;;;6243802;23;20006;-88
2021/10/13 03:49:03;;;;;;;29.63;12.02;;;10.50;99.90;;;;;;6243451;22;20008;-89
2021/10/13 03:51:29;;;;;;;32.03;11.93;;;10.50;99.90;;;;;;6219128;23;20005;-89
2021/10/13 03:53:55;;;;;;;35.30;14.18;;;10.50;99.90;;;;;;6243843;22;20008;-89
2021/10/13 03:56:21;;;;;;;29.00;12.88;;;10.60;99.90;;;;;;6218382;23;20020;-89
2021/10/13 03:58:47;;;;;;;38.72;12.80;;;10.60;99.90;;;;;;6243405;23;20006;-89
2021/10/13 04:01:13;;;;;;;37.17;13.82;;;10.60;99.90;;;;;;6243680;22;20037;-90
2021/10/13 04:03:40;;;;;;;32.42;12.80;;;10.60;99.90;;;;;;6218624;23;20431;-89
2021/10/13 04:06:07;;;;;;;30.27;13.68;;;10.60;99.90;;;;;;6218650;23;20036;-89
2021/10/13 04:08:32;;;;;;;37.55;13.40;;;10.60;99.90;;;;;;6218393;23;20012;-89
2021/10/13 04:10:58;;;;;;;37.92;14.57;;;10.60;99.90;;;;;;6244031;23;20019;-89
2021/10/13 04:13:24;;;;;;;27.65;11.43;;;10.60;99.90;;;;;;6243769;22;20000;-89
2021/10/13 04:15:49;;;;;;;30.20;10.73;;;10.60;99.90;;;;;;6243814;22;20016;-89
2021/10/13 04:18:15;;;;;;;31.23;13.38;;;10.60;99.90;;;;;;6243843;22;20451;-89
2021/10/13 04:20:41;;;;;;;37.22;11.73;;;10.60;99.90;;;;;;6244145;22;20008;-89
2021/10/13 04:23:06;;;;;;;32.63;11.95;;;10.60;99.90;;;;;;6246744;23;20000;-90
2021/10/13 04:25:32;;;;;;;32.95;13.13;;;10.70;99.90;;;;;;6244144;23;20450;-90
2021/10/13 04:27:58;;;;;;;40.88;13.75;;;10.70;99.90;;;;;;6243838;22;20070;-90
2021/10/13 04:30:23;;;;;;;35.90;14.13;;;10.70;99.90;;;;;;6243696;22;20008;-90
2021/10/13 04:32:49;;;;;;;36.70;13.65;;;10.70;99.90;;;;;;6243672;22;20004;-90
2021/10/13 04:35:14;;;;;;;31.45;13.57;;;10.70;99.90;;;;;;6245578;23;20077;-89
2021/10/13 04:37:40;;;;;;;39.80;14.85;;;10.70;99.90;;;;;;6246557;23;20383;-90
2021/10/13 04:40:07;;;;;;;47.90;15.50;;;10.70;99.90;;;;;;6246072;22;20079;-89
2021/10/13 04:42:33;;;;;;;49.97;16.52;;;10.70;99.90;;;;;;6220501;23;20000;-90
2021/10/13 04:44:59;;;;;;;51.15;18.70;;;10.70;99.90;;;;;;6220707;23;20050;-89
2021/10/13 04:47:25;;;;;;;57.97;18.92;;;10.80;99.90;;;;;;6220675;23;20031;-89
2021/10/13 04:49:51;;;;;;;54.72;19.65;;;10.80;99.90;;;;;;6221686;23;19996;-90
2021/10/13 04:52:17;;;;;;;55.58;18.67;;;10.80;99.90;;;;;;6221127;23;20004;-90
2021/10/13 04:54:43;;;;;;;55.70;18.42;;;10.80;99.90;;;;;;6246273;23;20130;-90
2021/10/13 04:57:09;;;;;;;33.67;13.57;;;10.80;99.90;;;;;;6220923;23;20107;-89
2021/10/13 04:59:35;;;;;;;41.78;15.73;;;10.80;99.90;;;;;;6221011;23;20348;-90
2021/10/13 05:02:01;;;;;;;45.50;17.73;;;10.80;99.90;;;;;;6220911;23;20069;-90
2021/10/13 05:04:27;;;;;;;39.40;14.32;;;10.80;99.90;;;;;;6246607;23;20087;-90
2021/10/13 05:06:52;;;;;;;44.47;15.70;;;10.80;99.90;;;;;;6246637;22;20007;-89
2021/10/13 05:09:18;;;;;;;45.42;16.38;;;10.80;99.90;;;;;;6245973;22;20023;-89
2021/10/13 05:11:44;;;;;;;45.30;15.55;;;10.80;99.90;;;;;;6223326;23;20428;-89
2021/10/13 05:14:10;;;;;;;42.00;15.70;;;10.80;99.90;;;;;;6220789;23;20008;-89
2021/10/13 05:16:37;;;;;;;46.60;16.83;;;10.80;99.90;;;;;;6220432;23;20019;-90
2021/10/13 05:19:03;;;;;;;43.65;16.17;;;10.80;99.90;;;;;;6220638;23;20313;-90
2021/10/13 05:21:29;;;;;;;46.70;16.75;;;10.80;99.90;;;;;;6221819;23;20008;-89
2021/10/13 05:23:55;;;;;;;44.22;16.55;;;10.80;99.90;;;;;;6222232;23;20010;-89
2021/10/13 05:26:21;;;;;;;47.58;16.85;;;10.80;99.90;;;;;;6226193;23;20012;-89
2021/10/13 05:28:46;;;;;;;43.88;15.77;;;10.90;99.90;;;;;;6231896;23;20008;-89
2021/10/13 05:31:12;;;;;;;53.60;17.00;;;10.80;99.90;;;;;;6221154;23;20015;-89
2021/10/13 05:33:38;;;;;;;35.20;14.50;;;10.90;99.90;;;;;;6220787;23;20067;-90
2021/10/13 05:36:04;;;;;;;40.00;16.33;;;10.80;99.90;;;;;;6221665;23;20034;-90
2021/10/13 05:38:29;;;;;;;43.78;15.63;;;10.80;99.90;;;;;;6221551;23;20050;-89
2021/10/13 05:40:55;;;;;;;46.97;16.13;;;10.80;99.90;;;;;;6220614;23;20008;-89
2021/10/13 05:43:21;;;;;;;49.60;18.23;;;10.80;99.90;;;;;;6220610;23;20008;-89
2021/10/13 05:45:47;;;;;;;49.45;16.13;;;10.90;99.90;;;;;;6220010;23;20000;-89
2021/10/13 05:48:14;;;;;;;48.88;16.90;;;10.80;99.90;;;;;;6220448;23;20039;-89
2021/10/13 05:50:40;;;;;;;44.50;15.40;;;10.80;99.90;;;;;;6220154;23;20027;-89
2021/10/13 05:53:05;;;;;;;42.38;15.85;;;10.80;99.90;;;;;;6220110;23;20447;-89
2021/10/13 05:55:31;;;;;;;49.10;18.13;;;10.80;99.90;;;;;;6219990;23;20439;-90
2021/10/13 05:57:57;;;;;;;49.13;16.25;;;10.80;99.90;;;;;;6221465;23;20008;-89
2021/10/13 06:00:27;;;;;;;43.40;16.55;;;10.80;99.90;;;;;;6222738;23;20004;-90
2021/10/13 06:02:52;;;;;;;46.20;16.30;;;10.80;99.90;;;;;;6223099;23;20335;-90
2021/10/13 06:05:18;;;;;;;35.92;12.32;;;10.80;99.90;;;;;;6229095;23;20243;-89
2021/10/13 06:07:43;;;;;;;50.42;15.98;;;10.80;99.90;;;;;;6223247;23;20027;-89
2021/10/13 06:10:09;;;;;;;46.40;16.00;;;10.80;99.90;;;;;;6219782;23;20040;-90
2021/10/13 06:12:35;;;;;;;55.88;17.33;;;10.80;99.90;;;;;;6223750;23;20056;-89
2021/10/13 06:15:02;;;;;;;41.85;16.60;;;10.80;99.90;;;;;;6223207;23;20047;-90
2021/10/13 06:17:27;;;;;;;52.95;17.70;;;10.80;99.90;;;;;;6219726;23;20004;-90
2021/10/13 06:19:53;;;;;;;48.83;16.40;;;10.80;99.90;;;;;;6219705;23;20008;-89
2021/10/13 06:22:19;;;;;;;49.50;16.10;;;10.80;99.90;;;;;;6219472;23;20081;-90
2021/10/13 06:24:44;;;;;;;46.40;16.45;;;10.80;99.90;;;;;;6219388;23;20106;-90
2021/10/13 06:27:10;;;;;;;52.97;17.25;;;10.80;99.90;;;;;;6222633;23;20039;-89
2021/10/13 06:29:36;;;;;;;49.72;17.17;;;10.80;99.90;;;;;;6222413;23;20015;-90
2021/10/13 06:32:01;;;;;;;45.15;17.05;;;10.80;99.90;;;;;;6221243;23;20035;-90
2021/10/13 06:34:27;;;;;;;46.60;16.73;;;10.90;99.90;;;;;;6221609;23;20095;-90
2021/10/13 06:36:52;;;;;;;48.38;16.45;;;10.90;99.90;;;;;;6220308;23;20090;-90
2021/10/13 06:39:18;;;;;;;43.35;15.77;;;10.90;99.90;;;;;;6221181;23;20004;-89
2021/10/13 06:41:44;;;;;;;40.58;15.23;;;11.00;99.90;;;;;;6221476;23;20008;-89
2021/10/13 06:44:12;;;;;;;35.85;13.63;;;11.00;99.90;;;;;;6221463;23;20036;-90
2021/10/13 06:46:39;;;;;;;35.65;14.13;;;11.00;99.90;;;;;;6221943;23;20035;-90
2021/10/13 06:49:04;;;;;;;38.85;14.15;;;11.00;99.90;;;;;;6224123;23;20047;-89
2021/10/13 06:51:30;;;;;;;24.50;10.65;;;11.10;99.90;;;;;;6221346;23;20447;-89
2021/10/13 06:53:56;;;;;;;33.55;12.02;;;11.10;99.90;;;;;;6219633;23;20004;-89
2021/10/13 06:56:21;;;;;;;32.72;12.13;;;11.10;99.90;;;;;;6219132;23;20012;-89
2021/10/13 06:58:47;;;;;;;25.50;11.13;;;11.20;99.90;;;;;;6219695;23;20004;-89
2021/10/13 07:01:13;;;;;;;23.10;9.55;;;11.20;99.90;;;;;;6220627;23;20059;-89
2021/10/13 07:03:38;;;;;;;18.52;8.85;;;11.20;99.90;;;;;;6220731;23;20004;-89
2021/10/13 07:06:04;;;;;;;24.42;9.43;;;11.30;99.90;;;;;;6220952;23;20339;-89
2021/10/13 07:08:30;;;;;;;48.00;15.07;;;11.30;99.90;;;;;;6220940;23;20152;-88
2021/10/13 07:10:56;;;;;;;40.25;13.75;;;11.30;99.90;;;;;;6248845;23;20004;-90
2021/10/13 07:13:21;;;;;;;36.15;14.63;;;11.30;99.90;;;;;;6256659;23;20331;-90
2021/10/13 07:15:47;;;;;;;36.00;14.10;;;11.30;99.90;;;;;;6260241;22;20020;-90
2021/10/13 07:18:13;;;;;;;40.60;14.75;;;11.30;99.90;;;;;;6247625;22;20005;-90
2021/10/13 07:20:39;;;;;;;28.65;11.55;;;11.40;99.90;;;;;;6248830;23;20008;-90
2021/10/13 07:23:06;;;;;;;20.15;7.97;;;11.40;99.90;;;;;;6197169;23;20011;-90
2021/10/13 07:25:33;;;;;;;19.30;8.60;;;11.40;99.90;;;;;;6225194;23;20035;-89
2021/10/13 07:28:01;;;;;;;20.65;8.43;;;11.50;99.90;;;;;;6226642;23;20072;-91
2021/10/13 07:30:27;;;;;;;16.67;5.60;;;11.50;99.90;;;;;;6224738;23;20035;-90
2021/10/13 07:32:53;;;;;;;11.15;6.05;;;11.60;99.90;;;;;;6223457;23;20453;-90
2021/10/13 07:35:20;;;;;;;10.55;5.10;;;11.60;99.90;;;;;;6222057;23;20019;-91
2021/10/13 07:37:46;;;;;;;10.10;4.88;;;11.60;99.90;;;;;;6222131;23;20004;-89
2021/10/13 07:40:13;;;;;;;9.02;4.85;;;11.70;99.90;;;;;;6222077;23;20003;-89
2021/10/13 07:42:38;;;;;;;7.05;3.72;;;11.70;99.90;;;;;;6220924;23;20011;-89
2021/10/13 07:45:05;;;;;;;5.13;3.05;;;11.80;99.90;;;;;;6221277;23;20000;-89
2021/10/13 07:47:31;;;;;;;8.10;3.47;;;11.90;99.90;;;;;;6223248;23;20027;-89
2021/10/13 07:49:56;;;;;;;8.05;3.83;;;11.90;99.90;;;;;;6231881;23;20454;-88
2021/10/13 07:52:22;;;;;;;5.20;3.42;;;12.00;99.90;;;;;;6230334;23;20039;-89
2021/10/13 07:54:48;;;;;;;4.80;3.00;;;12.00;99.90;;;;;;6232815;23;20008;-88
2021/10/13 07:57:13;;;;;;;2.22;1.10;;;12.10;99.90;;;;;;6242128;23;20000;-88
2021/10/13 07:59:39;;;;;;;3.80;1.33;;;12.10;99.90;;;;;;6239574;23;20026;-89
2021/10/13 08:02:04;;;;;;;2.15;1.10;;;12.20;99.90;;;;;;6236036;23;20012;-90
2021/10/13 08:04:31;;;;;;;1.55;0.93;;;12.30;99.90;;;;;;6236640;23;20000;-90
2021/10/13 08:06:57;;;;;;;1.40;0.85;;;12.40;99.90;;;;;;6231737;23;20064;-90
2021/10/13 08:09:24;;;;;;;2.80;1.10;;;12.50;99.90;;;;;;6226695;23;20020;-90
2021/10/13 08:11:50;;;;;;;2.95;1.27;;;12.60;99.90;;;;;;6225158;23;20000;-91
2021/10/13 08:14:16;;;;;;;1.95;1.70;;;12.70;99.90;;;;;;6226864;23;20087;-90
2021/10/13 08:16:42;;;;;;;3.03;1.20;;;12.80;99.90;;;;;;6237298;23;20004;-90
2021/10/13 08:19:08;;;;;;;3.08;1.88;;;12.80;99.90;;;;;;6245618;23;20004;-88
2021/10/13 08:21:34;;;;;;;4.05;2.28;;;12.80;99.90;;;;;;6241933;23;20073;-90
2021/10/13 08:24:00;;;;;;;3.70;2.42;;;12.80;99.90;;;;;;6241837;23;20004;-89
2021/10/13 08:26:25;;;;;;;4.97;2.30;;;12.80;99.90;;;;;;6239749;23;20233;-90
2021/10/13 08:28:51;;;;;;;4.10;2.08;;;12.80;99.90;;;;;;6228038;23;20009;-89
2021/10/13 08:31:17;;;;;;;3.67;2.17;;;12.80;99.90;;;;;;6221867;23;20011;-89
2021/10/13 08:33:43;;;;;;;6.35;2.90;;;12.80;99.90;;;;;;6222116;23;20028;-89
2021/10/13 08:36:09;;;;;;;3.40;2.22;;;12.80;99.90;;;;;;6223527;23;20020;-88
2021/10/13 08:38:34;;;;;;;4.13;2.03;;;12.90;99.90;;;;;;6222909;23;20009;-89
2021/10/13 08:41:00;;;;;;;2.35;1.50;;;12.90;99.90;;;;;;6223098;23;20014;-90
2021/10/13 08:43:26;;;;;;;3.92;2.30;;;12.90;99.90;;;;;;6221711;23;20436;-90
2021/10/13 08:45:52;;;;;;;4.90;2.30;;;12.90;99.90;;;;;;6224001;23;20011;-90
2021/10/13 08:48:17;;;;;;;2.80;1.85;;;12.90;99.90;;;;;;6223974;23;20032;-90
2021/10/13 08:50:45;;;;;;;1.85;1.60;;;13.00;99.90;;;;;;6222442;23;20012;-89
2021/10/13 08:53:17;;;;;;;1.05;0.88;;;13.00;99.90;;;;;;6222146;23;20008;-89
2021/10/13 08:55:44;;;;;;;2.20;1.30;;;13.10;99.90;;;;;;6196861;23;20027;-89
2021/10/13 08:58:15;;;;;;;3.15;1.00;;;13.10;99.90;;;;;;6222693;23;20028;-90
2021/10/13 09:00:42;;;;;;;0.98;0.80;;;13.20;99.90;;;;;;6225908;23;20004;-88
2021/10/13 09:03:27;;;;;;;2.70;0.98;;;13.20;99.90;;;;;;6232918;23;20004;-89
2021/10/13 09:05:53;;;;;;;1.67;1.30;;;13.30;99.90;;;;;;6221530;23;20095;-90
2021/10/13 09:08:19;;;;;;;3.38;1.60;;;13.30;99.90;;;;;;6221056;23;20004;-89
2021/10/13 09:10:45;;;;;;;4.63;1.63;;;13.30;99.90;;;;;;6221438;23;20000;-90
2021/10/13 09:13:13;;;;;;;2.85;1.67;;;13.30;99.90;;;;;;6221667;23;20035;-88
2021/10/13 09:15:39;;;;;;;2.28;1.80;;;13.30;99.90;;;;;;6221079;23;20012;-90
2021/10/13 09:18:06;;;;;;;3.50;1.65;;;13.30;99.90;;;;;;6248259;23;20004;-89
2021/10/13 09:20:35;;;;;;;2.25;1.60;;;13.30;99.90;;;;;;6249960;23;20004;-90
2021/10/13 09:23:03;;;;;;;2.15;1.60;;;13.30;99.90;;;;;;6225071;23;20443;-90
2021/10/13 09:25:30;;;;;;;4.07;1.20;;;13.40;99.90;;;;;;6224071;23;20004;-90
2021/10/13 09:27:56;;;;;;;2.80;1.20;;;13.40;99.90;;;;;;6228051;23;20008;-87
2021/10/13 09:30:27;;;;;;;1.48;1.08;;;13.50;99.90;;;;;;6224620;23;20035;-88
2021/10/13 09:32:53;;;;;;;1.73;1.00;;;13.60;99.90;;;;;;6232839;23;20067;-89
2021/10/13 09:35:29;;;;;;;2.08;1.58;;;13.70;99.90;;;;;;6239066;23;20019;-90
2021/10/13 09:37:55;;;;;;;2.67;1.70;;;13.80;99.90;;;;;;6231049;23;20061;-89
2021/10/13 09:40:33;;;;;;;3.40;1.73;;;13.80;99.90;;;;;;6224637;23;20378;-89
2021/10/13 09:42:59;;;;;;;3.22;1.98;;;13.90;99.90;;;;;;6238307;23;20027;-88
2021/10/13 09:45:27;;;;;;;3.90;2.40;;;14.00;99.90;;;;;;6236393;23;20000;-90
2021/10/13 09:48:07;;;;;;;3.83;2.25;;;14.00;99.90;;;;;;6235018;23;20026;-88
2021/10/13 09:50:47;;;;;;;3.83;2.45;;;14.10;99.90;;;;;;6234174;23;20000;-89
2021/10/13 09:53:20;;;;;;;3.92;2.58;;;14.10;99.90;;;;;;6239011;23;20008;-89
2021/10/13 09:55:46;;;;;;;3.90;2.40;;;14.10;99.90;;;;;;6231938;23;20024;-90
2021/10/13 09:58:25;;;;;;;6.20;2.53;;;14.20;99.90;;;;;;6238204;23;20000;-89
2021/10/13 10:01:11;;;;;;;5.50;3.45;;;14.20;99.90;;;;;;6264739;23;20038;-89
2021/10/13 10:03:40;;;;;;;4.18;3.15;;;14.30;99.90;;;;;;6234429;23;20301;-90
2021/10/13 10:06:08;;;;;;;4.80;3.35;;;14.40;99.90;;;;;;6224647;23;20036;-89
2021/10/13 10:08:56;;;;;;;4.57;3.00;;;14.40;99.90;;;;;;6224480;23;20016;-89
2021/10/13 10:11:33;;;;;;;4.80;3.05;;;14.50;99.90;;;;;;6225677;23;20514;-89
2021/10/13 10:14:00;;;;;;;6.35;3.58;;;14.50;99.90;;;;;;6226022;23;20035;-89
2021/10/13 10:16:37;;;;;;;9.35;3.63;;;14.60;99.90;;;;;;6225559;23;20015;-89
2021/10/13 10:19:27;;;;;;;6.18;3.78;;;14.70;99.90;;;;;;6225840;23;20007;-89
2021/10/13 10:21:56;;;;;;;4.60;3.30;;;14.70;99.90;;;;;;6211419;23;20008;-88
2021/10/13 10:24:35;;;;;;;8.02;4.07;;;14.80;99.90;;;;;;6226709;23;20274;-88
2021/10/13 10:27:31;;;;;;;6.53;3.65;;;14.80;99.90;;;;;;6227246;23;20004;-88
2021/10/13 10:30:08;;;;;;;6.68;2.97;;;14.80;99.90;;;;;;6201880;23;20040;-89
2021/10/13 10:32:35;;;;;;;5.43;3.28;;;14.90;99.90;;;;;;6227807;23;20000;-89
2021/10/13 10:35:03;;;;;;;7.32;3.33;;;14.80;99.90;;;;;;6222134;23;20019;-88
2021/10/13 10:37:55;;;;;;;4.78;3.10;;;14.80;99.90;;;;;;6228258;23;20027;-89
2021/10/13 10:40:35;;;;;;;4.45;2.17;;;14.90;99.90;;;;;;6229391;23;20012;-88
2021/10/13 10:43:07;;;;;;;4.22;1.70;;;14.90;99.90;;;;;;6225100;23;20007;-88
2021/10/13 10:45:40;;;;;;;1.98;1.65;;;14.90;99.90;;;;;;6227952;23;20027;-88
2021/10/13 10:48:09;;;;;;;2.75;1.83;;;15.00;99.90;;;;;;6229250;23;20001;-88
2021/10/13 10:50:39;;;;;;;2.40;1.63;;;15.00;99.90;;;;;;6229546;23;20458;-88
2021/10/13 10:53:20;;;;;;;4.18;1.13;;;15.20;99.90;;;;;;6226477;23;20020;-88
2021/10/13 10:55:46;;;;;;;4.22;1.38;;;15.30;99.90;;;;;;6230346;23;20110;-90
2021/10/13 10:58:27;;;;;;;1.50;1.00;;;15.70;99.90;;;;;;6231266;23;20000;-89
2021/10/13 11:01:13;;;;;;;0.98;0.88;;;16.10;99.90;;;;;;6228218;23;20018;-89
2021/10/13 11:03:43;;;;;;;2.35;0.98;;;16.50;99.90;;;;;;6226637;23;20008;-90
2021/10/13 11:06:10;;;;;;;3.50;0.93;;;16.90;99.90;;;;;;6225754;23;20061;-89
2021/10/13 11:08:36;;;;;;;0.50;0.50;;;17.20;99.90;;;;;;6220751;23;20023;-89
2021/10/13 11:11:16;;;;;;;1.00;0.63;;;17.50;99.90;;;;;;6220612;23;20074;-90
2021/10/13 11:13:52;;;;;;;4.18;0.68;;;17.70;99.90;;;;;;6221028;23;20031;-89
2021/10/13 11:16:18;;;;;;;1.30;0.90;;;17.80;99.90;;;;;;6221602;23;20167;-91
2021/10/13 11:18:44;;;;;;;1.20;1.10;;;17.90;99.90;;;;;;6220922;23;20143;-89
2021/10/13 11:21:11;;;;;;;1.40;1.30;;;18.00;99.90;;;;;;6221118;23;20019;-90
2021/10/13 11:23:37;;;;;;;1.48;1.30;;;18.30;99.90;;;;;;6222383;23;20016;-88
2021/10/13 11:26:03;;;;;;;2.22;1.17;;;18.40;99.90;;;;;;6220790;23;20015;-89
2021/10/13 11:28:37;;;;;;;1.67;1.15;;;18.60;99.90;;;;;;6220745;23;20446;-91
2021/10/13 11:31:05;;;;;;;1.90;1.05;;;18.90;99.90;;;;;;6220382;23;20095;-89
2021/10/13 11:33:32;;;;;;;3.15;1.15;;;19.00;99.90;;;;;;6220669;23;20031;-91
2021/10/13 11:36:04;;;;;;;0.93;0.80;;;19.10;99.90;;;;;;6220320;23;20023;-91
2021/10/13 11:38:36;;;;;;;2.08;1.52;;;19.20;99.50;;;;;;6220428;23;20097;-91
2021/10/13 11:41:07;;;;;;;2.95;1.50;;;19.20;98.40;;;;;;6220406;23;20012;-90
2021/10/13 11:43:33;;;;;;;1.80;1.30;;;19.00;97.70;;;;;;6220342;23;20087;-91
2021/10/13 11:45:59;;;;;;;1.70;1.13;;;19.10;97.80;;;;;;6221470;23;20008;-91
2021/10/13 11:48:27;;;;;;;1.40;1.20;;;19.00;97.50;;;;;;6221154;23;20039;-89
2021/10/13 11:50:54;;;;;;;2.42;1.10;;;18.90;97.60;;;;;;6221127;23;20430;-89
2021/10/13 11:53:21;;;;;;;1.42;0.98;;;18.70;97.90;;;;;;6220997;23;20024;-90
2021/10/13 11:55:47;;;;;;;1.08;0.90;;;18.70;98.40;;;;;;6220612;23;20023;-90
2021/10/13 11:58:26;;;;;;;3.75;1.27;;;18.80;98.40;;;;;;6221030;23;20004;-90
2021/10/13 12:00:51;;;;;;;1.20;1.10;;;18.90;97.70;;;;;;6220871;23;20008;-92
2021/10/13 12:03:33;;;;;;;2.15;1.38;;;19.00;97.30;;;;;;6223100;23;20016;-90
2021/10/13 12:06:00;;;;;;;1.42;1.02;;;19.20;97.10;;;;;;6222057;23;20012;-90
2021/10/13 12:08:28;;;;;;;1.67;0.98;;;19.60;96.70;;;;;;6220610;23;20034;-89
2021/10/13 12:11:03;;;;;;;3.90;1.17;;;20.10;95.60;;;;;;6220423;23;20008;-90
2021/10/13 12:13:30;;;;;;;1.98;1.02;;;20.60;94.20;;;;;;6220590;23;20491;-91
2021/10/13 12:15:58;;;;;;;1.48;1.00;;;20.90;92.70;;;;;;6220121;23;20016;-90
2021/10/13 12:18:26;;;;;;;3.00;1.48;;;20.90;91.40;;;;;;6221059;23;19996;-89
2021/10/13 12:21:16;;;;;;;2.38;1.00;;;20.60;91.20;;;;;;6220679;23;20004;-90
2021/10/13 12:23:55;;;;;;;1.35;0.98;;;20.20;91.80;;;;;;6220727;23;20004;-89
2021/10/13 12:26:35;;;;;;;2.75;1.25;;;19.80;92.40;;;;;;6220724;23;20004;-89
2021/10/13 12:29:08;;;;;;;3.45;1.30;;;19.30;93.20;;;;;;6220513;23;20012;-90
2021/10/13 12:31:34;;;;;;;2.20;1.23;;;18.90;94.20;;;;;;6220890;23;20027;-89
2021/10/13 12:34:01;;;;;;;0.77;0.77;;;18.50;95.10;;;;;;6224239;23;20022;-89
2021/10/13 12:36:39;;;;;;;1.05;0.60;;;18.20;95.90;;;;;;6229260;23;20008;-90
2021/10/13 12:39:12;;;;;;;1.77;0.52;;;17.80;96.70;;;;;;6222838;23;20005;-89
2021/10/13 12:41:45;;;;;;;0.77;0.40;;;17.50;97.60;;;;;;6220064;23;20004;-89
2021/10/13 12:44:14;;;;;;;1.88;0.32;;;17.30;98.10;;;;;;6221636;23;20004;-90